METAR Data
IDs: Format: Raw Decoded Include TAF

Data at: 0156 UTC 29 May 2022

KMKE 290152Z 16004KT 10SM FEW230 15/09 A2981 RMK AO2 SLP094 T01500089